Accueil
METAR-TAF:

METAR-TAF

Aéroports :

Aéroport Agen-La Garenne

Agen, France

latitude: 44-11N, longitude: 000-36E, altitude: 61 m

Observation

Le bulletin a été fait il y a 19 minutes, à 07:30 UTC
Vent 5 kt de ouest, variant entre ouest/sud-ouest et nord-ouest
Température 17°C
Humidité 88%
Pression 1026 hPa
Visibilité 10 km ou plus
Nuages fragmentés à une hauteur de 1100 ft
Ciel couvert à une hauteur de 1700 ft

METAR: LFBA 180730Z AUTO 28005KT 240V320 9999 BKN011 OVC017 17/15 Q1026 BECMG BKN025 OVC045

Heure: 09:49 (07:49 UTC)

Prévision

Le bulletin a été fait il y a 2 heures et 49 minutes, à 05:00 UTC
Prévision valable du 18 à 06 UTC au 18 à 15 UTC
Vent 5 kt de ouest/sud-ouest
Visibilité 10 km ou plus
Nuages fragmentés à une hauteur de 2500 ft
Ciel couvert à une hauteur de 4500 ft

TAF: LFBA 180500Z 1806/1815 25005KT 9999 BKN025 OVC045

Observations et prévisions météorologiques de plus de 4000 aéroports (messages METAR et TAF).

Les stations disponibles sont représentées par des disques jaunes et rouges sur la carte.

Passer la souris dessus pour voir le nom de la station.

Cliquer dessus pour voir les observations et prévisions météorologiques.

Pour changer de carte: cliquez sur les boutons verts avec une croix noire pour zoomer, sur le bouton vert avec un tiret pour effectuer un zoom arrière, ou sur les flèches vertes pour les cartes adjacentes.


METAR-TAF: